Time;durP1;ratioP1;P1;durP2;ratioP2;P2;SDS_P1;SDS_P2;PMS_P1;PMS_P2;Temp;Humidity;BMP_temperature;BMP_pressure;BME280_temperature;BME280_humidity;BME280_pressure;Samples;Min_cycle;Max_cycle;Signal;HPM_P1;HPM_P2
2021/06/22 00:02:31;;;;;;;;;;;;;;;17.49;100.00;99927.59;5093210;28;19965;-67
2021/06/22 00:05:17;;;;;;;;;;;;;;;17.53;100.00;99922.63;5094152;28;19919;-67
2021/06/22 00:08:00;;;;;;;;;;;;;;;17.44;100.00;99924.66;5093146;28;19977;-66
2021/06/22 00:10:44;;;;;;;;;;;;;;;17.37;100.00;99923.78;5093369;28;19958;-67
2021/06/22 00:13:28;;;;;;;;;;;;;;;17.32;100.00;99936.94;5093082;28;19919;-67
2021/06/22 00:16:12;;;;;;;;;;;;;;;17.18;100.00;99937.88;5094208;28;20333;-67
2021/06/22 00:18:56;;;;;;;;;;;;;;;17.00;100.00;99937.50;5093249;28;19999;-67
2021/06/22 00:21:40;;;;;;;;;;;;;;;16.96;100.00;99936.22;5093908;28;20346;-67
2021/06/22 00:24:24;;;;;;;;;;;;;;;16.92;100.00;99923.34;5093167;28;19941;-68
2021/06/22 00:27:08;;;;;;;;;;;;;;;16.91;100.00;99927.06;5078685;28;20349;-67
2021/06/22 00:29:52;;;;;;;;;;;;;;;16.90;100.00;99922.72;5093797;28;20335;-67
2021/06/22 00:32:36;;;;;;;;;;;;;;;16.91;100.00;99917.09;5094076;28;19922;-67
2021/06/22 00:35:20;;;;;;;;;;;;;;;16.91;100.00;99917.09;5093034;28;20418;-67
2021/06/22 00:38:03;;;;;;;;;;;;;;;16.95;100.00;99922.94;5092643;28;19923;-68
2021/06/22 00:40:47;;;;;;;;;;;;;;;16.87;100.00;99918.53;5093318;28;20392;-68
2021/06/22 00:43:31;;;;;;;;;;;;;;;16.74;100.00;99926.50;5092964;28;19918;-68
2021/06/22 00:46:15;;;;;;;;;;;;;;;16.65;100.00;99927.63;5093803;28;19938;-68
2021/06/22 00:48:59;;;;;;;;;;;;;;;16.64;100.00;99930.50;5092925;28;19919;-68
2021/06/22 00:51:43;;;;;;;;;;;;;;;16.65;100.00;99937.56;5092889;28;19935;-68
2021/06/22 00:54:27;;;;;;;;;;;;;;;16.70;100.00;99935.94;5078811;28;19982;-67
2021/06/22 00:57:11;;;;;;;;;;;;;;;16.77;100.00;99925.28;5092413;28;20057;-67
2021/06/22 00:59:55;;;;;;;;;;;;;;;16.87;100.00;99917.72;5093121;28;19961;-68
2021/06/22 01:02:39;;;;;;;;;;;;;;;16.99;100.00;99921.56;5093467;28;19920;-67
2021/06/22 01:05:23;;;;;;;;;;;;;;;17.07;100.00;99924.94;5093430;28;19957;-65
2021/06/22 01:08:07;;;;;;;;;;;;;;;17.11;100.00;99926.19;5092429;28;20337;-67
2021/06/22 01:10:52;;;;;;;;;;;;;;;17.16;100.00;99933.69;5093994;28;19919;-68
2021/06/22 01:13:36;;;;;;;;;;;;;;;17.12;100.00;99935.97;5092637;28;19935;-67
2021/06/22 01:16:24;;;;;;;;;;;;;;;17.14;100.00;99920.44;5093391;28;20020;-67
2021/06/22 01:19:09;;;;;;;;;;;;;;;17.09;100.00;99928.25;5092609;28;20053;-66
2021/06/22 01:21:52;;;;;;;;;;;;;;;17.05;100.00;99921.59;5092873;28;19957;-68
2021/06/22 01:24:37;;;;;;;;;;;;;;;17.08;100.00;99910.44;5077970;28;20011;-66
2021/06/22 01:27:21;;;;;;;;;;;;;;;17.16;100.00;99904.91;5092258;28;19923;-67
2021/06/22 01:30:05;;;;;;;;;;;;;;;17.18;100.00;99902.84;5078227;28;19918;-67
2021/06/22 01:32:49;;;;;;;;;;;;;;;17.15;100.00;99903.25;5092518;28;19918;-68
2021/06/22 01:35:33;;;;;;;;;;;;;;;17.12;100.00;99900.13;5078143;28;19935;-67
2021/06/22 01:38:17;;;;;;;;;;;;;;;17.10;100.00;99908.38;5092443;28;19938;-67
2021/06/22 01:41:01;;;;;;;;;;;;;;;17.07;100.00;99905.22;5092127;28;20037;-67
2021/06/22 01:43:45;;;;;;;;;;;;;;;17.07;100.00;99908.78;5093416;28;19919;-67
2021/06/22 01:46:29;;;;;;;;;;;;;;;16.99;100.00;99919.69;5093011;28;19972;-66
2021/06/22 01:49:13;;;;;;;;;;;;;;;16.99;100.00;99924.25;5093044;28;19916;-67
2021/06/22 01:51:57;;;;;;;;;;;;;;;16.99;100.00;99919.69;5092044;28;19934;-65
2021/06/22 01:54:41;;;;;;;;;;;;;;;16.97;100.00;99921.72;5095803;28;19918;-67
2021/06/22 01:57:25;;;;;;;;;;;;;;;16.97;100.00;99910.16;5095487;28;19966;-65
2021/06/22 02:00:09;;;;;;;;;;;;;;;16.94;100.00;99905.13;5096506;28;19920;-65
2021/06/22 02:02:53;;;;;;;;;;;;;;;16.91;100.00;99914.41;5096810;28;19992;-67
2021/06/22 02:05:37;;;;;;;;;;;;;;;16.90;100.00;99926.22;5096965;28;19919;-68
2021/06/22 02:08:21;;;;;;;;;;;;;;;16.89;100.00;99931.81;5096327;28;19923;-68
2021/06/22 02:11:05;;;;;;;;;;;;;;;16.91;100.00;99932.44;5096591;28;20402;-67
2021/06/22 02:13:49;;;;;;;;;;;;;;;16.96;100.00;99936.22;5081221;28;19918;-67
2021/06/22 02:16:32;;;;;;;;;;;;;;;16.97;100.00;99927.13;5095159;28;19923;-66
2021/06/22 02:19:16;;;;;;;;;;;;;;;17.00;100.00;99932.13;5096429;28;19915;-67
2021/06/22 02:22:00;;;;;;;;;;;;;;;16.96;100.00;99917.38;5095639;28;19919;-66
2021/06/22 02:24:44;;;;;;;;;;;;;;;16.97;100.00;99910.16;5096046;28;19919;-68
2021/06/22 02:27:29;;;;;;;;;;;;;;;16.90;100.00;99898.47;5095323;28;20376;-66
2021/06/22 02:30:14;;;;;;;;;;;;;;;16.84;100.00;99892.00;5095928;28;19919;-66
2021/06/22 02:32:58;;;;;;;;;;;;;;;16.91;100.00;99882.09;5095131;28;19969;-67
2021/06/22 02:35:42;;;;;;;;;;;;;;;16.83;100.00;99876.03;5095830;28;19958;-67
2021/06/22 02:38:26;;;;;;;;;;;;;;;16.76;100.00;99875.97;5096306;28;19927;-67
2021/06/22 02:41:09;;;;;;;;;;;;;;;16.68;100.00;99892.25;5080684;28;20333;-66
2021/06/22 02:43:53;;;;;;;;;;;;;;;16.77;100.00;99890.28;5095897;28;19918;-68
2021/06/22 02:46:37;;;;;;;;;;;;;;;16.75;100.00;99887.78;5095793;28;19919;-67
2021/06/22 02:49:21;;;;;;;;;;;;;;;16.76;100.00;99886.75;5094897;28;19919;-66
2021/06/22 02:52:05;;;;;;;;;;;;;;;16.73;100.00;99889.84;5094838;28;19965;-66
2021/06/22 02:54:49;;;;;;;;;;;;;;;16.73;100.00;99891.69;5094471;28;20434;-64
2021/06/22 02:57:33;;;;;;;;;;;;;;;16.70;100.00;99892.88;5095564;28;19939;-67
2021/06/22 03:00:18;;;;;;;;;;;;;;;16.69;100.00;99890.41;5095637;28;19966;-67
2021/06/22 03:03:02;;;;;;;;;;;;;;;16.68;100.00;99902.19;5095302;28;19919;-68
2021/06/22 03:05:46;;;;;;;;;;;;;;;16.63;100.00;99894.69;5079733;28;20000;-67
2021/06/22 03:08:30;;;;;;;;;;;;;;;16.64;100.00;99882.91;5079840;28;20403;-68
2021/06/22 03:11:13;;;;;;;;;;;;;;;16.62;100.00;99884.97;5095408;28;20368;-67
2021/06/22 03:13:57;;;;;;;;;;;;;;;16.58;100.00;99888.22;5095699;28;19919;-67
2021/06/22 03:16:41;;;;;;;;;;;;;;;16.58;100.00;99882.84;5093774;28;19923;-67
2021/06/22 03:19:25;;;;;;;;;;;;;;;16.46;100.00;99887.88;5095184;28;20434;-67
2021/06/22 03:22:09;;;;;;;;;;;;;;;16.44;100.00;99881.00;5095526;28;20375;-68
2021/06/22 03:24:53;;;;;;;;;;;;;;;16.29;100.00;99867.56;5095180;28;19919;-68
2021/06/22 03:27:37;;;;;;;;;;;;;;;16.27;100.00;99868.81;5093987;28;20490;-64
2021/06/22 03:30:21;;;;;;;;;;;;;;;16.26;100.00;99877.91;5094793;28;20007;-67
2021/06/22 03:33:05;;;;;;;;;;;;;;;16.19;100.00;99872.44;5079698;28;20341;-66
2021/06/22 03:35:49;;;;;;;;;;;;;;;16.15;100.00;99865.78;5079621;28;19919;-68
2021/06/22 03:38:33;;;;;;;;;;;;;;;16.18;100.00;99864.56;5093815;28;20327;-64
2021/06/22 03:41:17;;;;;;;;;;;;;;;16.15;100.00;99865.78;5094875;28;20280;-67
2021/06/22 03:44:00;;;;;;;;;;;;;;;16.16;100.00;99872.81;5079551;28;19968;-68
2021/06/22 03:46:44;;;;;;;;;;;;;;;16.11;100.00;99893.22;5093706;28;20337;-68
2021/06/22 03:49:28;;;;;;;;;;;;;;;16.12;100.00;99890.38;5094678;28;19964;-67
2021/06/22 03:52:12;;;;;;;;;;;;;;;16.09;100.00;99896.09;5093696;28;20392;-67
2021/06/22 03:54:56;;;;;;;;;;;;;;;16.12;100.00;99884.13;5093679;28;19923;-67
2021/06/22 03:57:40;;;;;;;;;;;;;;;16.17;100.00;99892.50;5093177;28;19922;-66
2021/06/22 04:00:24;;;;;;;;;;;;;;;16.15;100.00;99897.22;5093575;28;20327;-67
2021/06/22 04:03:09;;;;;;;;;;;;;;;16.17;100.00;99896.00;5093223;28;20380;-67
2021/06/22 04:05:53;;;;;;;;;;;;;;;16.09;100.00;99906.84;5093354;28;19919;-66
2021/06/22 04:08:38;;;;;;;;;;;;;;;16.14;100.00;99917.91;5094327;28;19919;-68
2021/06/22 04:11:22;;;;;;;;;;;;;;;16.18;100.00;99908.41;5078915;28;19919;-68
2021/06/22 04:14:06;;;;;;;;;;;;;;;16.14;100.00;99922.44;5093005;28;19974;-67
2021/06/22 04:16:50;;;;;;;;;;;;;;;16.07;100.00;99922.34;5093260;28;19927;-64
2021/06/22 04:19:34;;;;;;;;;;;;;;;16.14;100.00;99923.28;5096768;22;20364;-68
2021/06/22 04:22:18;;;;;;;;;;;;;;;16.11;100.00;99923.66;5087280;28;19922;-71
2021/06/22 04:25:02;;;;;;;;;;;;;;;16.11;100.00;99926.34;5087245;28;19966;-70
2021/06/22 04:27:46;;;;;;;;;;;;;;;16.08;100.00;99921.31;5087580;28;20390;-70
2021/06/22 04:30:34;;;;;;;;;;;;;;;16.13;100.00;99915.38;5066991;28;20294;-71
2021/06/22 04:33:18;;;;;;;;;;;;;;;16.09;100.00;99914.91;5052515;28;19936;-71
2021/06/22 04:36:02;;;;;;;;;;;;;;;16.09;100.00;99917.59;5052705;28;20292;-69
2021/06/22 04:38:46;;;;;;;;;;;;;;;16.12;100.00;99924.47;5052370;28;19920;-71
2021/06/22 04:41:31;;;;;;;;;;;;;;;16.13;100.00;99932.38;5052735;28;19920;-70
2021/06/22 04:44:15;;;;;;;;;;;;;;;16.19;100.00;99941.53;5066591;28;20388;-70
2021/06/22 04:46:59;;;;;;;;;;;;;;;16.17;100.00;99944.41;5052688;28;20455;-70
2021/06/22 04:49:43;;;;;;;;;;;;;;;16.18;100.00;99946.06;5052393;28;19966;-68
2021/06/22 04:52:27;;;;;;;;;;;;;;;16.24;100.00;99942.63;5052370;28;20392;-71
2021/06/22 04:55:14;;;;;;;;;;;;;;;16.24;100.00;99942.63;5052650;28;19959;-70
2021/06/22 04:57:59;;;;;;;;;;;;;;;16.25;100.00;99938.94;5052562;28;19924;-70
2021/06/22 05:00:43;;;;;;;;;;;;;;;16.21;100.00;99940.34;5053834;28;19936;-70
2021/06/22 05:03:27;;;;;;;;;;;;;;;16.21;100.00;99961.00;5052832;28;19958;-71
2021/06/22 05:06:11;;;;;;;;;;;;;;;16.29;100.00;99967.09;5052213;28;19919;-71
2021/06/22 05:08:55;;;;;;;;;;;;;;;16.30;100.00;99963.41;5052293;28;20391;-71
2021/06/22 05:11:39;;;;;;;;;;;;;;;16.36;100.00;99965.38;5053799;28;20066;-71
2021/06/22 05:14:23;;;;;;;;;;;;;;;16.42;100.00;99970.00;5052190;28;19999;-71
2021/06/22 05:17:07;;;;;;;;;;;;;;;16.47;100.00;99975.66;5052078;28;19966;-71
2021/06/22 05:19:51;;;;;;;;;;;;;;;16.52;100.00;99975.09;5052020;28;19935;-71
2021/06/22 05:22:35;;;;;;;;;;;;;;;16.58;100.00;99980.53;5053351;28;19920;-71
2021/06/22 05:25:19;;;;;;;;;;;;;;;16.62;100.00;99981.84;5052336;28;19919;-71
2021/06/22 05:28:03;;;;;;;;;;;;;;;16.72;100.00;99990.47;5054960;28;19919;-71
2021/06/22 05:30:47;;;;;;;;;;;;;;;16.80;100.00;99978.72;5056115;28;19921;-71
2021/06/22 05:33:31;;;;;;;;;;;;;;;16.89;100.00;99986.47;5056389;28;19920;-71
2021/06/22 05:36:14;;;;;;;;;;;;;;;16.96;100.00;99987.38;5070092;28;19923;-71
2021/06/22 05:38:58;;;;;;;;;;;;;;;17.03;100.00;99995.53;5056815;28;19920;-71
2021/06/22 05:41:42;;;;;;;;;;;;;;;17.11;100.00;99998.09;5055708;28;19966;-71
2021/06/22 05:44:26;;;;;;;;;;;;;;;17.13;100.00;99996.91;5055853;28;19920;-71
2021/06/22 05:47:10;;;;;;;;;;;;;;;17.20;100.00;100007.72;5055686;28;20004;-71
2021/06/22 05:49:55;;;;;;;;;;;;;;;17.20;100.00;100010.44;5055379;28;19923;-71
2021/06/22 05:52:39;;;;;;;;;;;;;;;17.27;100.00;100006.75;5055735;28;20278;-71
2021/06/22 05:55:23;;;;;;;;;;;;;;;17.37;100.00;100007.31;5055692;28;19990;-71
2021/06/22 05:58:07;;;;;;;;;;;;;;;17.40;100.00;100004.22;5056229;28;20331;-71
2021/06/22 06:00:50;;;;;;;;;;;;;;;17.42;100.00;100004.84;5056540;28;19919;-70
2021/06/22 06:03:34;;;;;;;;;;;;;;;17.46;100.00;100011.53;5069613;28;20301;-71
2021/06/22 06:06:18;;;;;;;;;;;;;;;17.45;100.00;100012.56;5055376;28;20038;-71
2021/06/22 06:09:02;;;;;;;;;;;;;;;17.50;100.00;100004.72;5055104;28;19920;-71
2021/06/22 06:11:46;;;;;;;;;;;;;;;17.54;100.00;100011.41;5055087;28;20436;-71
2021/06/22 06:14:30;;;;;;;;;;;;;;;17.55;100.00;100021.16;5056097;28;19958;-72
2021/06/22 06:17:15;;;;;;;;;;;;;;;17.51;100.00;100025.25;5055184;28;20002;-71
2021/06/22 06:19:59;;;;;;;;;;;;;;;17.62;100.00;100024.72;5055796;28;19935;-71
2021/06/22 06:22:43;;;;;;;;;;;;;;;17.64;100.00;100028.06;5056072;28;19920;-71
2021/06/22 06:25:27;;;;;;;;;;;;;;;17.68;100.00;100032.03;5055772;28;19920;-71
2021/06/22 06:28:26;;;;;;;;;;;;;;;17.61;100.00;100033.84;5056271;28;19963;-71
2021/06/22 06:31:10;;;;;;;;;;;;;;;17.64;100.00;100032.63;5055445;28;19919;-69
2021/06/22 06:33:54;;;;;;;;;;;;;;;17.60;100.00;100032.16;5054731;28;20332;-72
2021/06/22 06:36:38;;;;;;;;;;;;;;;17.69;100.00;100019.41;5054797;28;19923;-71
2021/06/22 06:39:22;;;;;;;;;;;;;;;17.61;100.00;100023.06;5055181;28;19919;-71
2021/06/22 06:42:06;;;;;;;;;;;;;;;17.63;100.00;100026.41;5068783;28;19919;-71
2021/06/22 06:44:49;;;;;;;;;;;;;;;17.70;100.00;100037.25;5054679;28;19967;-69
2021/06/22 06:47:34;;;;;;;;;;;;;;;17.67;100.00;100043.00;5054678;28;19919;-70
2021/06/22 06:50:18;;;;;;;;;;;;;;;17.67;100.00;100038.47;5054306;28;20354;-72
2021/06/22 06:53:02;;;;;;;;;;;;;;;17.68;100.00;100039.28;5054404;28;20277;-72
2021/06/22 06:55:49;;;;;;;;;;;;;;;17.74;100.00;100039.34;5054263;28;20285;-71
2021/06/22 06:58:33;;;;;;;;;;;;;;;17.71;100.00;100055.09;5054347;28;19962;-71
2021/06/22 07:01:17;;;;;;;;;;;;;;;17.75;100.00;100061.75;5054358;28;19919;-71
2021/06/22 07:04:00;;;;;;;;;;;;;;;17.70;100.00;100065.03;5054378;28;20350;-71
2021/06/22 07:06:44;;;;;;;;;;;;;;;17.74;100.00;100068.16;5054285;28;19966;-69
2021/06/22 07:09:28;;;;;;;;;;;;;;;17.71;100.00;100058.59;5068148;28;19942;-70
2021/06/22 07:12:12;;;;;;;;;;;;;;;17.74;100.00;100060.94;5054475;28;19919;-70
2021/06/22 07:14:56;;;;;;;;;;;;;;;17.75;100.00;100065.28;5053809;28;19919;-70
2021/06/22 07:17:40;;;;;;;;;;;;;;;17.74;100.00;100054.69;5054018;28;19939;-70
2021/06/22 07:20:24;;;;;;;;;;;;;;;17.75;100.00;100064.44;5053461;28;19927;-68
2021/06/22 07:23:08;;;;;;;;;;;;;;;17.77;100.00;100070.47;5054013;28;19959;-69
2021/06/22 07:25:52;;;;;;;;;;;;;;;17.88;100.00;100073.47;5053668;28;19919;-70
2021/06/22 07:28:36;;;;;;;;;;;;;;;17.91;100.00;100074.97;5054735;28;19919;-70
2021/06/22 07:31:20;;;;;;;;;;;;;;;17.94;100.00;100074.56;5053619;28;19935;-70
2021/06/22 07:34:04;;;;;;;;;;;;;;;18.02;100.00;100077.13;5053789;28;20324;-70
2021/06/22 07:36:47;;;;;;;;;;;;;;;17.92;100.00;100074.75;5054460;28;19923;-69
2021/06/22 07:39:31;;;;;;;;;;;;;;;18.03;100.00;100076.91;5053447;28;20079;-70
2021/06/22 07:42:15;;;;;;;;;;;;;;;18.11;100.00;100084.84;5067355;28;19966;-68
2021/06/22 07:44:59;;;;;;;;;;;;;;;18.10;100.00;100083.19;5054237;28;19920;-70
2021/06/22 07:47:43;;;;;;;;;;;;;;;18.09;100.00;100097.72;5067365;28;19920;-70
2021/06/22 07:50:27;;;;;;;;;;;;;;;18.12;100.00;100091.91;5053342;28;20281;-70
2021/06/22 07:53:11;;;;;;;;;;;;;;;18.22;100.00;100092.41;5053294;28;20289;-69
2021/06/22 07:55:55;;;;;;;;;;;;;;;18.33;100.00;100089.19;5053677;28;19959;-71
2021/06/22 07:58:39;;;;;;;;;;;;;;;18.41;100.00;100078.22;5067177;28;19966;-71
2021/06/22 08:01:23;;;;;;;;;;;;;;;18.51;100.00;100084.09;5067255;28;19920;-71
2021/06/22 08:04:07;;;;;;;;;;;;;;;18.50;100.00;100090.53;5054197;28;19961;-71
2021/06/22 08:06:53;;;;;;;;;;;;;;;18.59;100.00;100089.34;5067242;28;20384;-69
2021/06/22 08:09:36;;;;;;;;;;;;;;;18.59;100.00;100084.75;5052814;28;19962;-71
2021/06/22 08:12:20;;;;;;;;;;;;;;;18.58;100.00;100091.19;5052774;28;19971;-71
2021/06/22 08:15:05;;;;;;;;;;;;;;;18.55;100.00;100098.84;5053018;28;19923;-71
2021/06/22 08:17:49;;;;;;;;;;;;;;;18.56;100.00;100101.38;5053143;28;19923;-71
2021/06/22 08:20:33;;;;;;;;;;;;;;;18.56;100.00;100105.97;5052944;28;19920;-72
2021/06/22 08:23:17;;;;;;;;;;;;;;;18.63;100.00;100096.00;5052927;28;19920;-71
2021/06/22 08:26:01;;;;;;;;;;;;;;;18.62;100.00;100099.75;5052805;28;19935;-71
2021/06/22 08:28:45;;;;;;;;;;;;;;;18.66;100.00;100112.66;5052551;28;19924;-71
2021/06/22 08:31:29;;;;;;;;;;;;;;;18.62;100.00;100106.00;5052605;28;19970;-69
2021/06/22 08:34:13;;;;;;;;;;;;;;;18.71;100.00;100118.28;5052887;28;20023;-71
2021/06/22 08:36:57;;;;;;;;;;;;;;;18.73;100.00;100112.69;5052497;28;19923;-72
2021/06/22 08:39:41;;;;;;;;;;;;;;;18.84;100.00;100117.50;5052433;28;19962;-71
2021/06/22 08:42:25;;;;;;;;;;;;;;;18.96;100.00;100113.19;5052688;28;19923;-71
2021/06/22 08:45:11;;;;;;;;;;;;;;;19.03;100.00;100119.47;5052715;28;20376;-71
2021/06/22 08:47:55;;;;;;;;;;;;;;;19.05;100.00;100122.78;5052589;28;19924;-71
2021/06/22 08:50:45;;;;;;;;;;;;;;;19.04;100.00;100131.94;5053046;28;20039;-71
2021/06/22 08:53:29;;;;;;;;;;;;;;;19.18;100.00;100122.91;5052736;28;19958;-66
2021/06/22 08:56:13;;;;;;;;;;;;;;;19.27;100.00;100118.97;5053834;28;19936;-66
2021/06/22 08:58:57;;;;;;;;;;;;;;;19.21;100.00;100125.19;5052771;28;20376;-66
2021/06/22 09:01:41;;;;;;;;;;;;;;;19.05;100.00;100122.78;5053933;28;19981;-66
2021/06/22 09:04:25;;;;;;;;;;;;;;;19.05;100.00;100128.19;5056642;28;19923;-66
2021/06/22 09:07:10;;;;;;;;;;;;;;;18.85;100.00;100121.88;5056769;28;19962;-65
2021/06/22 09:09:54;;;;;;;;;;;;;;;18.78;100.00;100115.63;5056430;28;19920;-67
2021/06/22 09:12:38;;;;;;;;;;;;;;;18.81;100.00;100109.81;5057623;28;19919;-67
2021/06/22 09:15:27;;;;;;;;;;;;;;;18.89;100.00;100120.47;5056506;28;20346;-66
2021/06/22 09:18:25;;;;;;;;;;;;;;;18.95;100.00;100122.34;5057224;28;19922;-66
2021/06/22 09:21:18;;;;;;;;;;;;;;;19.06;100.00;100108.25;5057386;28;19974;-65
2021/06/22 09:24:02;;;;;;;;;;;;;;;19.12;100.00;100108.28;5056716;28;19919;-71
2021/06/22 09:26:47;;;;;;;;;;;;;;;19.23;100.00;100105.03;5056031;28;19920;-71
2021/06/22 09:29:31;;;;;;;;;;;;;;;19.26;100.00;100109.19;5057016;28;19919;-71
2021/06/22 09:32:23;;;;;;;;;;;;;;;19.28;100.00;100113.34;5056183;28;20313;-70
2021/06/22 09:35:17;;;;;;;;;;;;;;;19.33;100.00;100120.84;5056120;28;19919;-71
2021/06/22 09:38:01;;;;;;;;;;;;;;;19.35;100.00;100124.19;5055985;28;20354;-70
2021/06/22 09:40:45;;;;;;;;;;;;;;;19.41;100.00;100120.69;5056094;28;20059;-71
2021/06/22 09:43:34;;;;;;;;;;;;;;;19.45;100.00;100124.63;5056214;28;19919;-71
2021/06/22 09:46:30;;;;;;;;;;;;;;;19.37;100.00;100116.72;5057042;28;19919;-71
2021/06/22 09:49:33;;;;;;;;;;;;;;;19.34;100.00;100117.97;5056860;28;19923;-71
2021/06/22 09:52:25;;;;;;;;;;;;;;;19.30;100.00;100132.09;5069749;28;20016;-71
2021/06/22 09:55:09;;;;;;;;;;;;;;;19.19;100.00;100146.19;5055920;28;19935;-71
2021/06/22 09:57:53;;;;;;;;;;;;;;;19.08;100.00;100133.22;5055699;28;19924;-71
2021/06/22 10:00:37;;;;;;;;;;;;;;;19.08;100.00;100133.22;5055867;28;19920;-71
2021/06/22 10:03:33;;;;;;;;;;;;;;;19.05;100.00;100139.00;5056688;28;20023;-71
2021/06/22 10:06:16;;;;;;;;;;;;;;;19.11;100.00;100143.63;5055548;28;19919;-71
2021/06/22 10:09:00;;;;;;;;;;;;;;;19.19;100.00;100141.59;5055941;28;19959;-70
2021/06/22 10:11:44;;;;;;;;;;;;;;;19.21;100.00;100149.50;5055557;28;19919;-70
2021/06/22 10:14:29;;;;;;;;;;;;;;;19.18;100.00;100149.94;5054886;28;19918;-71
2021/06/22 10:17:14;;;;;;;;;;;;;;;19.16;100.00;100152.78;5069817;28;19923;-71
2021/06/22 10:19:59;;;;;;;;;;;;;;;19.16;100.00;100160.03;5159595;22;20404;-70
2021/06/22 10:22:45;;;;;;;;;;;;;;;19.08;100.00;100157.53;5075568;28;20415;-71
2021/06/22 10:25:29;;;;;;;;;;;;;;;18.98;100.00;100155.19;5089495;28;19919;-70
2021/06/22 10:28:13;;;;;;;;;;;;;;;19.00;100.00;100153.13;5075266;28;19958;-70
2021/06/22 10:30:57;;;;;;;;;;;;;;;19.02;100.00;100161.03;5089798;28;20392;-70
2021/06/22 10:33:41;;;;;;;;;;;;;;;19.14;100.00;100157.56;5061974;28;19919;-69
2021/06/22 10:36:25;;;;;;;;;;;;;;;19.27;100.00;100154.13;5079638;28;20091;-71
2021/06/22 10:39:11;;;;;;;;;;;;;;;19.45;100.00;100163.31;5079606;28;20284;-71
2021/06/22 10:41:56;;;;;;;;;;;;;;;19.66;100.00;100162.31;5063825;28;19974;-71
2021/06/22 10:44:42;;;;;;;;;;;;;;;19.80;100.00;100162.16;5077716;28;20001;-70
2021/06/22 10:47:27;;;;;;;;;;;;;;;20.00;100.00;100154.06;5077379;28;20292;-70
2021/06/22 10:50:20;;;;;;;;;;;;;;;20.20;100.00;100157.66;5076004;28;20384;-71
2021/06/22 10:53:06;;;;;;;;;;;;;;;20.38;100.00;100158.69;5076158;28;19920;-70
2021/06/22 10:55:49;;;;;;;;;;;;;;;20.64;100.00;100165.94;5075198;28;20288;-70
2021/06/22 10:58:33;;;;;;;;;;;;;;;20.81;98.28;100164.44;5074525;28;20007;-70
2021/06/22 11:01:18;;;;;;;;;;;;;;;20.86;100.00;100164.66;5074399;28;20003;-70
2021/06/22 11:04:05;;;;;;;;;;;;;;;20.78;100.00;100167.56;5075165;28;19919;-69
2021/06/22 11:07:01;;;;;;;;;;;;;;;20.62;100.00;100162.59;5074548;28;20064;-71
2021/06/22 11:10:04;;;;;;;;;;;;;;;20.43;100.00;100169.69;5075574;28;19936;-71
2021/06/22 11:12:48;;;;;;;;;;;;;;;20.32;100.00;100164.09;5075422;28;19966;-70
2021/06/22 11:15:45;;;;;;;;;;;;;;;20.20;100.00;100161.16;5060201;28;19923;-71
2021/06/22 11:18:48;;;;;;;;;;;;;;;20.02;100.00;100154.69;5074006;28;19962;-71
2021/06/22 11:21:32;;;;;;;;;;;;;;;19.88;100.00;100161.09;5074247;28;20319;-70
2021/06/22 11:24:17;;;;;;;;;;;;;;;19.82;100.00;100159.25;5074932;28;19945;-70
2021/06/22 11:27:04;;;;;;;;;;;;;;;19.63;100.00;100154.63;5073677;28;19934;-71
2021/06/22 11:29:48;;;;;;;;;;;;;;;19.64;100.00;100159.84;5073945;28;19942;-71
2021/06/22 11:32:33;;;;;;;;;;;;;;;19.68;100.00;100168.38;5074033;28;20391;-70
2021/06/22 11:35:17;;;;;;;;;;;;;;;19.71;100.00;100166.06;5073985;28;20284;-71
2021/06/22 11:38:13;;;;;;;;;;;;;;;19.80;100.00;100169.44;5075013;28;20303;-70
2021/06/22 11:41:09;;;;;;;;;;;;;;;19.89;100.00;100176.34;5073406;28;19919;-70
2021/06/22 11:44:09;;;;;;;;;;;;;;;19.93;100.00;100173.00;5073643;28;19963;-69
2021/06/22 11:46:53;;;;;;;;;;;;;;;19.96;100.00;100171.75;5074779;28;19969;-69
2021/06/22 11:49:41;;;;;;;;;;;;;;;19.93;100.00;100169.47;5073696;28;20006;-70
2021/06/22 11:52:45;;;;;;;;;;;;;;;19.93;100.00;100166.75;5059720;28;20061;-70
2021/06/22 11:55:31;;;;;;;;;;;;;;;19.88;100.00;100169.22;5073764;28;19931;-68
2021/06/22 11:58:20;;;;;;;;;;;;;;;19.79;100.00;100170.50;5073366;28;20361;-70
2021/06/22 12:01:04;;;;;;;;;;;;;;;19.77;100.00;100176.09;5073964;28;20011;-69
2021/06/22 12:03:52;;;;;;;;;;;;;;;19.78;100.00;100169.63;5059862;28;20015;-70
2021/06/22 12:06:36;;;;;;;;;;;;;;;19.76;100.00;100176.28;5073485;28;19923;-69
2021/06/22 12:09:20;;;;;;;;;;;;;;;19.81;100.00;100171.09;5074215;28;19918;-69
2021/06/22 12:12:04;;;;;;;;;;;;;;;19.85;100.00;100165.09;5074236;28;19934;-71
2021/06/22 12:14:51;;;;;;;;;;;;;;;19.82;100.00;100178.19;5059324;28;19920;-71
2021/06/22 12:17:35;;;;;;;;;;;;;;;19.91;100.00;100176.94;5073141;28;19927;-71
2021/06/22 12:20:20;;;;;;;;;;;;;;;19.96;100.00;100150.09;5072763;28;19958;-71
2021/06/22 12:23:07;;;;;;;;;;;;;;;20.17;100.00;100158.03;5073249;28;19958;-70
2021/06/22 12:25:52;;;;;;;;;;;;;;;20.48;100.00;100144.69;5073901;28;19957;-71
2021/06/22 12:28:36;;;;;;;;;;;;;;;21.27;100.00;100134.28;5073086;28;19923;-71
2021/06/22 12:31:20;;;;;;;;;;;;;;;23.36;100.00;100125.13;5073248;28;20007;-71
2021/06/22 12:34:05;;;;;;;;;;;;;;;26.21;79.25;100118.81;5073848;28;20340;-69
2021/06/22 12:36:49;;;;;;;;;;;;;;;27.82;67.76;100121.59;5072539;28;19924;-68
2021/06/22 12:39:39;;;;;;;;;;;;;;;29.36;56.79;100112.78;5073992;28;20391;-69
2021/06/22 12:42:25;;;;;;;;;;;;;;;29.31;56.56;100118.28;5058737;28;19967;-69
2021/06/22 12:45:15;;;;;;;;;;;;;;;29.11;58.17;100115.47;5074196;28;19969;-69
2021/06/22 12:47:59;;;;;;;;;;;;;;;29.07;57.70;100119.81;5058737;28;19966;-69
2021/06/22 12:50:43;;;;;;;;;;;;;;;29.54;55.75;100117.84;5058755;28;19919;-70
2021/06/22 12:53:30;;;;;;;;;;;;;;;30.10;54.21;100116.84;5072526;28;20285;-70
2021/06/22 12:56:15;;;;;;;;;;;;;;;30.39;52.69;100109.69;5072858;28;19920;-69
2021/06/22 12:59:03;;;;;;;;;;;;;;;30.83;53.18;100122.56;5072411;28;19923;-69
2021/06/22 13:01:47;;;;;;;;;;;;;;;30.62;49.84;100104.47;5072759;28;19997;-69
2021/06/22 13:04:47;;;;;;;;;;;;;;;30.14;51.96;100109.72;5072727;28;20001;-69
2021/06/22 13:07:32;;;;;;;;;;;;;;;29.28;53.81;100118.81;5072752;28;20418;-70
2021/06/22 13:10:16;;;;;;;;;;;;;;;28.85;54.85;100124.63;5072762;28;20392;-70
2021/06/22 13:13:04;;;;;;;;;;;;;;;28.60;56.01;100127.22;5072616;28;19919;-71
2021/06/22 13:15:48;;;;;;;;;;;;;;;28.47;57.10;100122.19;5058524;28;20292;-70
2021/06/22 13:18:40;;;;;;;;;;;;;;;28.39;57.17;100117.19;5072222;28;19927;-70
2021/06/22 13:21:33;;;;;;;;;;;;;;;28.03;59.36;100131.66;5072364;28;19919;-69
2021/06/22 13:24:44;;;;;;;;;;;;;;;27.70;59.70;100142.81;5058553;28;19961;-70
2021/06/22 13:27:34;;;;;;;;;;;;;;;27.39;58.39;100157.25;5072161;28;20014;-71
2021/06/22 13:30:20;;;;;;;;;;;;;;;26.84;62.97;100154.84;5058395;28;19961;-70
2021/06/22 13:33:04;;;;;;;;;;;;;;;26.89;60.90;100157.63;5072181;28;19918;-69
2021/06/22 13:35:53;;;;;;;;;;;;;;;26.84;61.73;100155.66;5073208;28;20388;-70
2021/06/22 13:38:36;;;;;;;;;;;;;;;27.19;59.06;100150.72;5072018;28;19923;-71
2021/06/22 13:41:20;;;;;;;;;;;;;;;27.80;57.18;100147.59;5072362;28;19914;-71
2021/06/22 13:44:04;;;;;;;;;;;;;;;28.00;57.50;100148.63;5072334;28;19921;-70
2021/06/22 13:46:48;;;;;;;;;;;;;;;28.18;57.12;100152.91;5072992;28;19919;-70
2021/06/22 13:49:36;;;;;;;;;;;;;;;28.29;54.51;100152.72;5060028;28;19982;-71
2021/06/22 13:52:20;;;;;;;;;;;;;;;28.15;55.33;100156.16;5061692;28;19918;-70
2021/06/22 13:55:04;;;;;;;;;;;;;;;28.20;56.65;100143.34;5061399;28;19919;-70
2021/06/22 13:57:47;;;;;;;;;;;;;;;28.22;56.06;100143.88;5076770;28;19924;-70
2021/06/22 14:00:32;;;;;;;;;;;;;;;28.69;55.72;100153.06;5075847;28;19969;-70
2021/06/22 14:03:17;;;;;;;;;;;;;;;28.78;54.19;100151.50;5075567;28;19925;-70
2021/06/22 14:06:01;;;;;;;;;;;;;;;28.73;55.03;100148.69;5061533;28;19935;-69